sensor_id;sensor_type;location;lat;lon;timestamp;P1;durP1;ratioP1;P2;durP2;ratioP2
59273;SDS011;45044;41.572;24.730;2022-12-05T00:03:52;13.67;;;8.27;;
59273;SDS011;45044;41.572;24.730;2022-12-05T00:06:20;13.97;;;8.10;;
59273;SDS011;45044;41.572;24.730;2022-12-05T00:08:48;16.10;;;8.60;;
59273;SDS011;45044;41.572;24.730;2022-12-05T00:11:16;13.83;;;7.20;;
59273;SDS011;45044;41.572;24.730;2022-12-05T00:13:45;11.80;;;6.53;;
59273;SDS011;45044;41.572;24.730;2022-12-05T00:16:14;11.97;;;6.17;;
59273;SDS011;45044;41.572;24.730;2022-12-05T00:18:43;11.60;;;6.30;;
59273;SDS011;45044;41.572;24.730;2022-12-05T00:21:11;14.67;;;8.03;;
59273;SDS011;45044;41.572;24.730;2022-12-05T00:23:42;27.83;;;14.77;;
59273;SDS011;45044;41.572;24.730;2022-12-05T00:26:09;14.35;;;8.93;;
59273;SDS011;45044;41.572;24.730;2022-12-05T00:28:37;15.67;;;9.27;;
59273;SDS011;45044;41.572;24.730;2022-12-05T00:31:06;14.07;;;7.30;;
59273;SDS011;45044;41.572;24.730;2022-12-05T00:33:34;12.70;;;7.70;;
59273;SDS011;45044;41.572;24.730;2022-12-05T00:36:09;12.85;;;7.07;;
59273;SDS011;45044;41.572;24.730;2022-12-05T00:38:38;16.47;;;9.63;;
59273;SDS011;45044;41.572;24.730;2022-12-05T00:41:07;15.30;;;9.10;;
59273;SDS011;45044;41.572;24.730;2022-12-05T00:43:35;16.52;;;9.45;;
59273;SDS011;45044;41.572;24.730;2022-12-05T00:46:03;15.53;;;8.70;;
59273;SDS011;45044;41.572;24.730;2022-12-05T00:48:33;18.50;;;9.45;;
59273;SDS011;45044;41.572;24.730;2022-12-05T00:51:01;21.40;;;11.45;;
59273;SDS011;45044;41.572;24.730;2022-12-05T00:53:31;12.20;;;6.43;;
59273;SDS011;45044;41.572;24.730;2022-12-05T00:56:09;23.08;;;12.32;;
59273;SDS011;45044;41.572;24.730;2022-12-05T00:58:38;27.57;;;17.43;;
59273;SDS011;45044;41.572;24.730;2022-12-05T01:01:09;23.23;;;10.43;;
59273;SDS011;45044;41.572;24.730;2022-12-05T01:03:36;61.70;;;21.07;;
59273;SDS011;45044;41.572;24.730;2022-12-05T01:06:04;46.67;;;17.63;;
59273;SDS011;45044;41.572;24.730;2022-12-05T01:08:32;22.47;;;10.33;;
59273;SDS011;45044;41.572;24.730;2022-12-05T01:11:00;14.27;;;7.57;;
59273;SDS011;45044;41.572;24.730;2022-12-05T01:13:26;14.13;;;7.17;;
59273;SDS011;45044;41.572;24.730;2022-12-05T01:15:54;14.10;;;8.60;;
59273;SDS011;45044;41.572;24.730;2022-12-05T01:18:21;12.97;;;6.83;;
59273;SDS011;45044;41.572;24.730;2022-12-05T01:20:49;12.63;;;7.70;;
59273;SDS011;45044;41.572;24.730;2022-12-05T01:23:16;12.33;;;7.13;;
59273;SDS011;45044;41.572;24.730;2022-12-05T01:25:44;12.52;;;7.57;;
59273;SDS011;45044;41.572;24.730;2022-12-05T01:28:13;13.70;;;8.17;;
59273;SDS011;45044;41.572;24.730;2022-12-05T01:30:42;13.07;;;7.63;;
59273;SDS011;45044;41.572;24.730;2022-12-05T01:33:13;11.63;;;6.83;;
59273;SDS011;45044;41.572;24.730;2022-12-05T01:35:39;13.00;;;7.97;;
59273;SDS011;45044;41.572;24.730;2022-12-05T01:38:07;11.10;;;6.57;;
59273;SDS011;45044;41.572;24.730;2022-12-05T01:40:36;11.10;;;6.37;;
59273;SDS011;45044;41.572;24.730;2022-12-05T01:43:03;11.67;;;6.40;;
59273;SDS011;45044;41.572;24.730;2022-12-05T01:45:33;15.00;;;8.43;;
59273;SDS011;45044;41.572;24.730;2022-12-05T01:48:06;11.93;;;7.00;;
59273;SDS011;45044;41.572;24.730;2022-12-05T01:50:36;13.20;;;7.07;;
59273;SDS011;45044;41.572;24.730;2022-12-05T01:53:03;10.10;;;5.25;;
59273;SDS011;45044;41.572;24.730;2022-12-05T01:55:30;10.20;;;5.90;;
59273;SDS011;45044;41.572;24.730;2022-12-05T01:57:59;11.63;;;6.50;;
59273;SDS011;45044;41.572;24.730;2022-12-05T02:00:27;12.00;;;7.03;;
59273;SDS011;45044;41.572;24.730;2022-12-05T02:02:55;12.43;;;6.80;;
59273;SDS011;45044;41.572;24.730;2022-12-05T02:05:26;16.10;;;13.90;;
59273;SDS011;45044;41.572;24.730;2022-12-05T02:07:55;12.83;;;6.50;;
59273;SDS011;45044;41.572;24.730;2022-12-05T02:10:24;16.43;;;9.73;;
59273;SDS011;45044;41.572;24.730;2022-12-05T02:12:53;15.50;;;8.75;;
59273;SDS011;45044;41.572;24.730;2022-12-05T02:20:37;16.23;;;9.03;;
59273;SDS011;45044;41.572;24.730;2022-12-05T02:28:19;15.43;;;8.43;;
59273;SDS011;45044;41.572;24.730;2022-12-05T02:31:13;17.20;;;9.83;;
59273;SDS011;45044;41.572;24.730;2022-12-05T02:33:47;12.70;;;6.80;;
59273;SDS011;45044;41.572;24.730;2022-12-05T02:36:24;13.40;;;7.83;;
59273;SDS011;45044;41.572;24.730;2022-12-05T02:39:16;14.93;;;7.93;;
59273;SDS011;45044;41.572;24.730;2022-12-05T02:42:13;14.02;;;7.97;;
59273;SDS011;45044;41.572;24.730;2022-12-05T02:44:46;13.90;;;7.57;;
59273;SDS011;45044;41.572;24.730;2022-12-05T02:47:37;17.30;;;9.93;;
59273;SDS011;45044;41.572;24.730;2022-12-05T02:50:08;16.27;;;9.87;;
59273;SDS011;45044;41.572;24.730;2022-12-05T02:52:37;16.60;;;9.77;;
59273;SDS011;45044;41.572;24.730;2022-12-05T02:55:06;17.73;;;11.40;;
59273;SDS011;45044;41.572;24.730;2022-12-05T02:57:34;18.43;;;11.53;;
59273;SDS011;45044;41.572;24.730;2022-12-05T03:00:03;18.20;;;11.17;;
59273;SDS011;45044;41.572;24.730;2022-12-05T03:02:31;18.73;;;10.93;;
59273;SDS011;45044;41.572;24.730;2022-12-05T03:05:19;17.10;;;9.15;;
59273;SDS011;45044;41.572;24.730;2022-12-05T03:10:37;17.07;;;10.13;;
59273;SDS011;45044;41.572;24.730;2022-12-05T03:13:09;16.10;;;10.33;;
59273;SDS011;45044;41.572;24.730;2022-12-05T03:15:43;15.70;;;9.47;;
59273;SDS011;45044;41.572;24.730;2022-12-05T03:18:15;18.57;;;10.73;;
59273;SDS011;45044;41.572;24.730;2022-12-05T03:20:47;15.80;;;10.90;;
59273;SDS011;45044;41.572;24.730;2022-12-05T03:23:21;15.77;;;10.20;;
59273;SDS011;45044;41.572;24.730;2022-12-05T03:31:17;14.53;;;8.40;;
59273;SDS011;45044;41.572;24.730;2022-12-05T03:33:49;16.03;;;8.77;;
59273;SDS011;45044;41.572;24.730;2022-12-05T03:36:27;15.73;;;10.60;;
59273;SDS011;45044;41.572;24.730;2022-12-05T03:41:51;18.07;;;10.40;;
59273;SDS011;45044;41.572;24.730;2022-12-05T03:44:33;20.53;;;10.77;;
59273;SDS011;45044;41.572;24.730;2022-12-05T03:47:03;18.73;;;9.63;;
59273;SDS011;45044;41.572;24.730;2022-12-05T03:49:40;11.80;;;6.90;;
59273;SDS011;45044;41.572;24.730;2022-12-05T03:54:42;21.50;;;12.13;;
59273;SDS011;45044;41.572;24.730;2022-12-05T03:59:52;18.47;;;12.00;;
59273;SDS011;45044;41.572;24.730;2022-12-05T04:02:24;17.23;;;9.57;;
59273;SDS011;45044;41.572;24.730;2022-12-05T04:04:55;15.50;;;9.30;;
59273;SDS011;45044;41.572;24.730;2022-12-05T04:07:27;14.67;;;9.37;;
59273;SDS011;45044;41.572;24.730;2022-12-05T04:09:59;15.40;;;9.17;;
59273;SDS011;45044;41.572;24.730;2022-12-05T04:12:31;14.03;;;7.50;;
59273;SDS011;45044;41.572;24.730;2022-12-05T04:15:03;14.40;;;9.17;;
59273;SDS011;45044;41.572;24.730;2022-12-05T04:20:09;13.53;;;7.60;;
59273;SDS011;45044;41.572;24.730;2022-12-05T04:23:01;14.17;;;7.50;;
59273;SDS011;45044;41.572;24.730;2022-12-05T04:25:32;14.70;;;8.87;;
59273;SDS011;45044;41.572;24.730;2022-12-05T04:36:16;16.90;;;9.70;;
59273;SDS011;45044;41.572;24.730;2022-12-05T04:38:49;13.53;;;7.13;;
59273;SDS011;45044;41.572;24.730;2022-12-05T04:41:23;15.13;;;8.30;;
59273;SDS011;45044;41.572;24.730;2022-12-05T04:44:00;16.33;;;9.57;;
59273;SDS011;45044;41.572;24.730;2022-12-05T04:46:31;14.17;;;8.10;;
59273;SDS011;45044;41.572;24.730;2022-12-05T04:48:59;15.77;;;9.20;;
59273;SDS011;45044;41.572;24.730;2022-12-05T04:51:31;17.03;;;9.57;;
59273;SDS011;45044;41.572;24.730;2022-12-05T04:54:04;19.63;;;12.07;;
59273;SDS011;45044;41.572;24.730;2022-12-05T04:56:47;19.77;;;11.53;;
59273;SDS011;45044;41.572;24.730;2022-12-05T04:59:21;16.60;;;9.30;;
59273;SDS011;45044;41.572;24.730;2022-12-05T05:01:50;14.60;;;8.63;;
59273;SDS011;45044;41.572;24.730;2022-12-05T05:04:24;21.50;;;12.80;;
59273;SDS011;45044;41.572;24.730;2022-12-05T05:06:55;20.65;;;12.20;;
59273;SDS011;45044;41.572;24.730;2022-12-05T05:09:22;19.40;;;11.37;;
59273;SDS011;45044;41.572;24.730;2022-12-05T05:11:49;17.13;;;10.43;;
59273;SDS011;45044;41.572;24.730;2022-12-05T05:14:16;17.17;;;10.80;;
59273;SDS011;45044;41.572;24.730;2022-12-05T05:16:43;21.90;;;12.03;;
59273;SDS011;45044;41.572;24.730;2022-12-05T05:19:10;22.03;;;12.40;;
59273;SDS011;45044;41.572;24.730;2022-12-05T05:21:38;22.13;;;12.57;;
59273;SDS011;45044;41.572;24.730;2022-12-05T05:24:07;24.93;;;12.73;;
59273;SDS011;45044;41.572;24.730;2022-12-05T05:26:37;22.13;;;13.20;;
59273;SDS011;45044;41.572;24.730;2022-12-05T05:29:06;25.00;;;15.07;;
59273;SDS011;45044;41.572;24.730;2022-12-05T05:31:33;32.90;;;17.37;;
59273;SDS011;45044;41.572;24.730;2022-12-05T05:34:00;28.50;;;17.17;;
59273;SDS011;45044;41.572;24.730;2022-12-05T05:36:35;27.00;;;15.40;;
59273;SDS011;45044;41.572;24.730;2022-12-05T05:39:03;23.67;;;13.23;;
59273;SDS011;45044;41.572;24.730;2022-12-05T05:41:31;20.93;;;12.20;;
59273;SDS011;45044;41.572;24.730;2022-12-05T05:43:59;21.70;;;11.80;;
59273;SDS011;45044;41.572;24.730;2022-12-05T05:46:28;20.13;;;12.43;;
59273;SDS011;45044;41.572;24.730;2022-12-05T05:48:57;33.47;;;21.73;;
59273;SDS011;45044;41.572;24.730;2022-12-05T05:51:27;20.20;;;12.67;;
59273;SDS011;45044;41.572;24.730;2022-12-05T05:53:55;18.07;;;11.43;;
59273;SDS011;45044;41.572;24.730;2022-12-05T05:56:22;20.73;;;12.90;;
59273;SDS011;45044;41.572;24.730;2022-12-05T05:58:56;22.93;;;15.00;;
59273;SDS011;45044;41.572;24.730;2022-12-05T06:01:25;28.37;;;16.33;;
59273;SDS011;45044;41.572;24.730;2022-12-05T06:03:53;23.93;;;14.90;;
59273;SDS011;45044;41.572;24.730;2022-12-05T06:06:20;23.13;;;15.63;;
59273;SDS011;45044;41.572;24.730;2022-12-05T06:08:47;32.50;;;21.83;;
59273;SDS011;45044;41.572;24.730;2022-12-05T06:11:23;20.30;;;13.40;;
59273;SDS011;45044;41.572;24.730;2022-12-05T06:13:56;34.13;;;21.63;;
59273;SDS011;45044;41.572;24.730;2022-12-05T06:16:26;26.83;;;16.10;;
59273;SDS011;45044;41.572;24.730;2022-12-05T06:18:55;32.97;;;20.03;;
59273;SDS011;45044;41.572;24.730;2022-12-05T06:21:22;27.80;;;15.20;;
59273;SDS011;45044;41.572;24.730;2022-12-05T06:23:49;44.53;;;22.83;;
59273;SDS011;45044;41.572;24.730;2022-12-05T06:26:17;41.07;;;22.30;;
59273;SDS011;45044;41.572;24.730;2022-12-05T06:28:45;24.87;;;14.20;;
59273;SDS011;45044;41.572;24.730;2022-12-05T06:31:16;25.57;;;14.50;;
59273;SDS011;45044;41.572;24.730;2022-12-05T06:33:45;29.33;;;18.83;;
59273;SDS011;45044;41.572;24.730;2022-12-05T06:36:13;25.50;;;15.77;;
59273;SDS011;45044;41.572;24.730;2022-12-05T06:38:42;27.93;;;17.17;;
59273;SDS011;45044;41.572;24.730;2022-12-05T06:41:11;23.67;;;16.67;;
59273;SDS011;45044;41.572;24.730;2022-12-05T06:43:41;17.20;;;11.07;;
59273;SDS011;45044;41.572;24.730;2022-12-05T06:46:09;21.10;;;12.57;;
59273;SDS011;45044;41.572;24.730;2022-12-05T06:48:37;19.70;;;13.33;;
59273;SDS011;45044;41.572;24.730;2022-12-05T06:51:04;22.43;;;15.17;;
59273;SDS011;45044;41.572;24.730;2022-12-05T06:53:35;23.90;;;16.43;;
59273;SDS011;45044;41.572;24.730;2022-12-05T06:56:03;21.20;;;15.27;;
59273;SDS011;45044;41.572;24.730;2022-12-05T06:58:33;21.33;;;12.53;;
59273;SDS011;45044;41.572;24.730;2022-12-05T07:01:00;16.93;;;10.47;;
59273;SDS011;45044;41.572;24.730;2022-12-05T07:03:47;23.03;;;15.73;;
59273;SDS011;45044;41.572;24.730;2022-12-05T07:06:14;22.17;;;13.23;;
59273;SDS011;45044;41.572;24.730;2022-12-05T07:08:42;21.33;;;16.43;;
59273;SDS011;45044;41.572;24.730;2022-12-05T07:11:10;20.90;;;13.53;;
59273;SDS011;45044;41.572;24.730;2022-12-05T07:13:37;20.17;;;13.47;;
59273;SDS011;45044;41.572;24.730;2022-12-05T07:16:03;19.83;;;14.23;;
59273;SDS011;45044;41.572;24.730;2022-12-05T07:18:33;27.07;;;17.77;;
59273;SDS011;45044;41.572;24.730;2022-12-05T07:21:01;20.20;;;12.03;;
59273;SDS011;45044;41.572;24.730;2022-12-05T07:23:38;24.43;;;13.77;;
59273;SDS011;45044;41.572;24.730;2022-12-05T07:26:06;18.90;;;12.40;;
59273;SDS011;45044;41.572;24.730;2022-12-05T07:28:34;21.73;;;12.27;;
59273;SDS011;45044;41.572;24.730;2022-12-05T07:31:02;19.83;;;11.13;;
59273;SDS011;45044;41.572;24.730;2022-12-05T07:33:30;21.70;;;12.47;;
59273;SDS011;45044;41.572;24.730;2022-12-05T07:36:14;19.53;;;10.97;;
59273;SDS011;45044;41.572;24.730;2022-12-05T07:38:42;53.35;;;27.60;;
59273;SDS011;45044;41.572;24.730;2022-12-05T07:41:12;28.77;;;14.70;;
59273;SDS011;45044;41.572;24.730;2022-12-05T07:43:42;24.70;;;14.40;;
59273;SDS011;45044;41.572;24.730;2022-12-05T07:46:09;39.87;;;22.97;;
59273;SDS011;45044;41.572;24.730;2022-12-05T07:48:39;25.87;;;16.43;;
59273;SDS011;45044;41.572;24.730;2022-12-05T07:51:07;31.93;;;19.97;;
59273;SDS011;45044;41.572;24.730;2022-12-05T07:53:35;24.30;;;12.80;;
59273;SDS011;45044;41.572;24.730;2022-12-05T07:56:04;27.67;;;15.97;;
59273;SDS011;45044;41.572;24.730;2022-12-05T07:58:33;25.47;;;14.60;;
59273;SDS011;45044;41.572;24.730;2022-12-05T08:01:07;19.00;;;10.83;;
59273;SDS011;45044;41.572;24.730;2022-12-05T08:03:36;18.70;;;11.10;;
59273;SDS011;45044;41.572;24.730;2022-12-05T08:06:04;19.87;;;11.77;;
59273;SDS011;45044;41.572;24.730;2022-12-05T08:08:35;21.83;;;12.93;;
59273;SDS011;45044;41.572;24.730;2022-12-05T08:11:03;21.30;;;12.53;;
59273;SDS011;45044;41.572;24.730;2022-12-05T08:13:31;23.53;;;12.83;;
59273;SDS011;45044;41.572;24.730;2022-12-05T08:15:59;21.10;;;12.70;;
59273;SDS011;45044;41.572;24.730;2022-12-05T08:18:27;19.30;;;12.17;;
59273;SDS011;45044;41.572;24.730;2022-12-05T08:20:54;23.10;;;13.40;;
59273;SDS011;45044;41.572;24.730;2022-12-05T08:23:21;25.13;;;14.90;;
59273;SDS011;45044;41.572;24.730;2022-12-05T08:25:48;23.57;;;14.67;;
59273;SDS011;45044;41.572;24.730;2022-12-05T08:28:14;21.33;;;13.60;;
59273;SDS011;45044;41.572;24.730;2022-12-05T08:30:41;21.80;;;15.07;;
59273;SDS011;45044;41.572;24.730;2022-12-05T08:33:08;24.60;;;14.40;;
59273;SDS011;45044;41.572;24.730;2022-12-05T08:35:35;21.60;;;15.70;;
59273;SDS011;45044;41.572;24.730;2022-12-05T08:38:03;22.00;;;16.03;;
59273;SDS011;45044;41.572;24.730;2022-12-05T08:40:29;19.53;;;13.63;;
59273;SDS011;45044;41.572;24.730;2022-12-05T08:42:56;17.73;;;11.07;;
59273;SDS011;45044;41.572;24.730;2022-12-05T08:45:23;18.60;;;12.60;;
59273;SDS011;45044;41.572;24.730;2022-12-05T08:47:50;15.40;;;8.73;;
59273;SDS011;45044;41.572;24.730;2022-12-05T08:50:16;17.13;;;11.50;;
59273;SDS011;45044;41.572;24.730;2022-12-05T08:52:43;17.67;;;10.83;;
59273;SDS011;45044;41.572;24.730;2022-12-05T08:55:10;18.63;;;12.07;;
59273;SDS011;45044;41.572;24.730;2022-12-05T08:57:37;18.00;;;11.23;;
59273;SDS011;45044;41.572;24.730;2022-12-05T09:00:03;16.97;;;11.00;;
59273;SDS011;45044;41.572;24.730;2022-12-05T09:02:32;17.67;;;12.03;;
59273;SDS011;45044;41.572;24.730;2022-12-05T09:04:59;16.10;;;11.27;;
59273;SDS011;45044;41.572;24.730;2022-12-05T09:07:46;18.37;;;9.90;;
59273;SDS011;45044;41.572;24.730;2022-12-05T09:10:12;16.37;;;8.60;;
59273;SDS011;45044;41.572;24.730;2022-12-05T09:12:39;14.30;;;7.73;;
59273;SDS011;45044;41.572;24.730;2022-12-05T09:15:06;13.80;;;8.37;;
59273;SDS011;45044;41.572;24.730;2022-12-05T09:17:34;17.47;;;10.43;;
59273;SDS011;45044;41.572;24.730;2022-12-05T09:20:01;24.60;;;11.93;;
59273;SDS011;45044;41.572;24.730;2022-12-05T09:22:28;15.73;;;8.83;;
59273;SDS011;45044;41.572;24.730;2022-12-05T09:24:55;16.37;;;8.93;;
59273;SDS011;45044;41.572;24.730;2022-12-05T09:27:22;16.07;;;9.10;;
59273;SDS011;45044;41.572;24.730;2022-12-05T09:29:48;13.93;;;9.43;;
59273;SDS011;45044;41.572;24.730;2022-12-05T09:32:15;14.87;;;8.73;;
59273;SDS011;45044;41.572;24.730;2022-12-05T09:34:42;16.40;;;10.23;;
59273;SDS011;45044;41.572;24.730;2022-12-05T09:37:09;15.23;;;9.83;;
59273;SDS011;45044;41.572;24.730;2022-12-05T09:39:55;17.27;;;10.15;;
59273;SDS011;45044;41.572;24.730;2022-12-05T09:42:25;16.03;;;9.47;;
59273;SDS011;45044;41.572;24.730;2022-12-05T09:47:54;21.85;;;12.23;;
59273;SDS011;45044;41.572;24.730;2022-12-05T09:50:26;21.23;;;13.73;;
59273;SDS011;45044;41.572;24.730;2022-12-05T09:55:42;20.75;;;12.23;;
59273;SDS011;45044;41.572;24.730;2022-12-05T09:59:11;22.50;;;13.55;;
59273;SDS011;45044;41.572;24.730;2022-12-05T10:06:35;20.00;;;11.60;;
59273;SDS011;45044;41.572;24.730;2022-12-05T10:11:50;11.97;;;7.47;;
59273;SDS011;45044;41.572;24.730;2022-12-05T10:14:39;16.17;;;10.20;;
59273;SDS011;45044;41.572;24.730;2022-12-05T10:19:55;14.60;;;9.83;;
59273;SDS011;45044;41.572;24.730;2022-12-05T10:22:29;17.77;;;11.27;;
59273;SDS011;45044;41.572;24.730;2022-12-05T10:25:11;26.40;;;16.30;;
59273;SDS011;45044;41.572;24.730;2022-12-05T10:27:45;21.65;;;13.10;;
59273;SDS011;45044;41.572;24.730;2022-12-05T10:30:16;21.63;;;13.83;;
59273;SDS011;45044;41.572;24.730;2022-12-05T10:35:37;17.73;;;9.97;;
59273;SDS011;45044;41.572;24.730;2022-12-05T10:40:39;15.17;;;8.90;;
59273;SDS011;45044;41.572;24.730;2022-12-05T10:43:09;13.67;;;8.90;;
59273;SDS011;45044;41.572;24.730;2022-12-05T10:45:43;10.53;;;5.37;;
59273;SDS011;45044;41.572;24.730;2022-12-05T10:48:13;10.47;;;5.47;;
59273;SDS011;45044;41.572;24.730;2022-12-05T10:50:43;9.77;;;5.43;;
59273;SDS011;45044;41.572;24.730;2022-12-05T10:53:14;11.50;;;7.13;;
59273;SDS011;45044;41.572;24.730;2022-12-05T10:55:45;10.83;;;6.00;;
59273;SDS011;45044;41.572;24.730;2022-12-05T10:58:33;11.30;;;6.93;;
59273;SDS011;45044;41.572;24.730;2022-12-05T11:01:06;15.43;;;10.02;;
59273;SDS011;45044;41.572;24.730;2022-12-05T11:03:36;19.75;;;13.20;;
59273;SDS011;45044;41.572;24.730;2022-12-05T11:06:17;18.83;;;11.47;;
59273;SDS011;45044;41.572;24.730;2022-12-05T11:08:51;15.07;;;10.57;;
59273;SDS011;45044;41.572;24.730;2022-12-05T11:11:30;14.40;;;8.93;;
59273;SDS011;45044;41.572;24.730;2022-12-05T11:16:34;14.73;;;9.70;;
59273;SDS011;45044;41.572;24.730;2022-12-05T11:19:18;16.27;;;11.13;;
59273;SDS011;45044;41.572;24.730;2022-12-05T11:21:53;14.23;;;8.83;;
59273;SDS011;45044;41.572;24.730;2022-12-05T11:24:21;33.70;;;17.57;;
59273;SDS011;45044;41.572;24.730;2022-12-05T11:26:52;16.57;;;9.33;;
59273;SDS011;45044;41.572;24.730;2022-12-05T11:29:37;28.00;;;16.43;;
59273;SDS011;45044;41.572;24.730;2022-12-05T11:34:34;41.97;;;26.03;;
59273;SDS011;45044;41.572;24.730;2022-12-05T11:37:16;23.15;;;14.88;;
59273;SDS011;45044;41.572;24.730;2022-12-05T11:39:50;12.97;;;7.60;;
59273;SDS011;45044;41.572;24.730;2022-12-05T11:42:22;14.87;;;9.23;;
59273;SDS011;45044;41.572;24.730;2022-12-05T11:47:41;12.53;;;9.27;;
59273;SDS011;45044;41.572;24.730;2022-12-05T11:58:45;12.52;;;7.80;;
59273;SDS011;45044;41.572;24.730;2022-12-05T12:24:10;26.40;;;16.38;;
59273;SDS011;45044;41.572;24.730;2022-12-05T12:32:22;16.33;;;9.60;;
59273;SDS011;45044;41.572;24.730;2022-12-05T12:35:06;16.60;;;10.05;;
59273;SDS011;45044;41.572;24.730;2022-12-05T12:38:19;15.32;;;9.02;;
59273;SDS011;45044;41.572;24.730;2022-12-05T12:40:48;14.18;;;8.95;;
59273;SDS011;45044;41.572;24.730;2022-12-05T12:51:47;13.70;;;7.68;;
59273;SDS011;45044;41.572;24.730;2022-12-05T13:02:51;12.80;;;7.80;;
59273;SDS011;45044;41.572;24.730;2022-12-05T13:05:30;15.50;;;9.50;;
59273;SDS011;45044;41.572;24.730;2022-12-05T13:10:42;15.63;;;9.82;;
59273;SDS011;45044;41.572;24.730;2022-12-05T13:13:16;15.10;;;9.73;;
59273;SDS011;45044;41.572;24.730;2022-12-05T13:15:53;17.30;;;10.23;;
59273;SDS011;45044;41.572;24.730;2022-12-05T13:18:26;18.83;;;11.10;;
59273;SDS011;45044;41.572;24.730;2022-12-05T13:20:55;29.27;;;16.77;;
59273;SDS011;45044;41.572;24.730;2022-12-05T13:23:27;37.78;;;22.10;;
59273;SDS011;45044;41.572;24.730;2022-12-05T13:25:56;22.45;;;14.27;;
59273;SDS011;45044;41.572;24.730;2022-12-05T13:30:57;18.25;;;13.63;;
59273;SDS011;45044;41.572;24.730;2022-12-05T13:33:30;18.38;;;13.00;;
59273;SDS011;45044;41.572;24.730;2022-12-05T13:36:07;18.92;;;11.10;;
59273;SDS011;45044;41.572;24.730;2022-12-05T13:38:59;16.40;;;10.52;;
59273;SDS011;45044;41.572;24.730;2022-12-05T13:41:48;18.77;;;11.82;;
59273;SDS011;45044;41.572;24.730;2022-12-05T13:44:40;25.27;;;18.25;;
59273;SDS011;45044;41.572;24.730;2022-12-05T13:50:22;28.42;;;20.20;;
59273;SDS011;45044;41.572;24.730;2022-12-05T13:53:46;26.73;;;19.67;;
59273;SDS011;45044;41.572;24.730;2022-12-05T13:55:56;33.30;;;23.58;;
59273;SDS011;45044;41.572;24.730;2022-12-05T14:11:37;30.20;;;20.02;;
59273;SDS011;45044;41.572;24.730;2022-12-05T14:14:06;32.58;;;21.27;;
59273;SDS011;45044;41.572;24.730;2022-12-05T14:16:36;34.28;;;21.85;;
59273;SDS011;45044;41.572;24.730;2022-12-05T14:19:23;33.55;;;21.83;;
59273;SDS011;45044;41.572;24.730;2022-12-05T14:22:18;35.33;;;24.40;;
59273;SDS011;45044;41.572;24.730;2022-12-05T14:24:53;36.88;;;24.63;;
59273;SDS011;45044;41.572;24.730;2022-12-05T14:27:41;31.80;;;23.15;;
59273;SDS011;45044;41.572;24.730;2022-12-05T14:30:20;31.55;;;20.55;;
59273;SDS011;45044;41.572;24.730;2022-12-05T14:35:22;60.50;;;35.90;;
59273;SDS011;45044;41.572;24.730;2022-12-05T14:37:55;40.78;;;24.33;;
59273;SDS011;45044;41.572;24.730;2022-12-05T14:40:32;32.15;;;20.02;;
59273;SDS011;45044;41.572;24.730;2022-12-05T14:43:18;38.83;;;25.02;;
59273;SDS011;45044;41.572;24.730;2022-12-05T14:50:46;38.80;;;25.88;;
59273;SDS011;45044;41.572;24.730;2022-12-05T14:53:21;44.28;;;26.52;;
59273;SDS011;45044;41.572;24.730;2022-12-05T14:55:53;41.25;;;25.55;;
59273;SDS011;45044;41.572;24.730;2022-12-05T15:03:59;33.90;;;22.08;;
59273;SDS011;45044;41.572;24.730;2022-12-05T15:06:28;47.15;;;32.15;;
59273;SDS011;45044;41.572;24.730;2022-12-05T15:08:57;39.40;;;27.77;;
59273;SDS011;45044;41.572;24.730;2022-12-05T15:11:50;45.95;;;33.28;;
59273;SDS011;45044;41.572;24.730;2022-12-05T15:14:19;34.58;;;21.95;;
59273;SDS011;45044;41.572;24.730;2022-12-05T15:16:48;31.10;;;19.77;;
59273;SDS011;45044;41.572;24.730;2022-12-05T15:19:21;45.25;;;27.58;;
59273;SDS011;45044;41.572;24.730;2022-12-05T15:21:56;44.17;;;28.75;;
59273;SDS011;45044;41.572;24.730;2022-12-05T15:24:26;36.20;;;23.90;;
59273;SDS011;45044;41.572;24.730;2022-12-05T15:26:53;32.10;;;20.27;;
59273;SDS011;45044;41.572;24.730;2022-12-05T15:31:52;33.20;;;20.70;;
59273;SDS011;45044;41.572;24.730;2022-12-05T15:39:54;39.80;;;23.40;;
59273;SDS011;45044;41.572;24.730;2022-12-05T15:42:29;39.45;;;25.63;;
59273;SDS011;45044;41.572;24.730;2022-12-05T15:47:48;45.40;;;31.02;;
59273;SDS011;45044;41.572;24.730;2022-12-05T15:50:37;26.08;;;17.20;;
59273;SDS011;45044;41.572;24.730;2022-12-05T15:58:31;73.95;;;40.17;;
59273;SDS011;45044;41.572;24.730;2022-12-05T16:01:16;74.65;;;46.50;;
59273;SDS011;45044;41.572;24.730;2022-12-05T16:03:55;42.45;;;27.85;;
59273;SDS011;45044;41.572;24.730;2022-12-05T16:06:27;45.25;;;28.80;;
59273;SDS011;45044;41.572;24.730;2022-12-05T16:09:06;39.53;;;26.63;;
59273;SDS011;45044;41.572;24.730;2022-12-05T16:11:38;38.80;;;24.35;;
59273;SDS011;45044;41.572;24.730;2022-12-05T16:14:05;38.60;;;25.88;;
59273;SDS011;45044;41.572;24.730;2022-12-05T16:16:34;36.40;;;25.30;;
59273;SDS011;45044;41.572;24.730;2022-12-05T16:19:05;36.55;;;25.70;;
59273;SDS011;45044;41.572;24.730;2022-12-05T16:21:43;39.25;;;26.52;;
59273;SDS011;45044;41.572;24.730;2022-12-05T16:29:39;55.13;;;33.78;;
59273;SDS011;45044;41.572;24.730;2022-12-05T16:32:40;53.95;;;34.58;;
59273;SDS011;45044;41.572;24.730;2022-12-05T16:35:00;38.05;;;25.60;;
59273;SDS011;45044;41.572;24.730;2022-12-05T16:37:27;36.63;;;25.05;;
59273;SDS011;45044;41.572;24.730;2022-12-05T16:39:55;40.00;;;26.63;;
59273;SDS011;45044;41.572;24.730;2022-12-05T16:42:23;45.70;;;30.38;;
59273;SDS011;45044;41.572;24.730;2022-12-05T16:44:55;47.10;;;31.85;;
59273;SDS011;45044;41.572;24.730;2022-12-05T16:50:23;38.17;;;26.17;;
59273;SDS011;45044;41.572;24.730;2022-12-05T16:52:59;271.48;;;126.93;;
59273;SDS011;45044;41.572;24.730;2022-12-05T16:55:27;94.70;;;49.95;;
59273;SDS011;45044;41.572;24.730;2022-12-05T16:58:01;62.55;;;36.83;;
59273;SDS011;45044;41.572;24.730;2022-12-05T17:00:28;58.88;;;38.78;;
59273;SDS011;45044;41.572;24.730;2022-12-05T17:02:56;57.08;;;36.85;;
59273;SDS011;45044;41.572;24.730;2022-12-05T17:05:43;61.55;;;41.78;;
59273;SDS011;45044;41.572;24.730;2022-12-05T17:08:10;66.03;;;44.10;;
59273;SDS011;45044;41.572;24.730;2022-12-05T17:10:36;62.33;;;39.35;;
59273;SDS011;45044;41.572;24.730;2022-12-05T17:13:04;61.50;;;40.85;;
59273;SDS011;45044;41.572;24.730;2022-12-05T17:15:32;54.75;;;38.80;;
59273;SDS011;45044;41.572;24.730;2022-12-05T17:18:03;53.65;;;34.70;;
59273;SDS011;45044;41.572;24.730;2022-12-05T17:20:37;54.08;;;34.92;;
59273;SDS011;45044;41.572;24.730;2022-12-05T17:23:09;68.50;;;45.15;;
59273;SDS011;45044;41.572;24.730;2022-12-05T17:25:50;68.53;;;43.13;;
59273;SDS011;45044;41.572;24.730;2022-12-05T17:28:18;86.00;;;54.17;;
59273;SDS011;45044;41.572;24.730;2022-12-05T17:30:46;98.68;;;56.88;;
59273;SDS011;45044;41.572;24.730;2022-12-05T17:33:14;76.10;;;49.20;;
59273;SDS011;45044;41.572;24.730;2022-12-05T17:35:42;71.72;;;47.67;;
59273;SDS011;45044;41.572;24.730;2022-12-05T17:38:09;78.47;;;51.75;;
59273;SDS011;45044;41.572;24.730;2022-12-05T17:40:37;82.07;;;52.33;;
59273;SDS011;45044;41.572;24.730;2022-12-05T17:43:04;81.72;;;49.90;;